createdAt,value
2018-11-03T00:03:01.063Z,17.9
2018-11-03T00:07:58.823Z,17.8
2018-11-03T00:12:56.945Z,17.8
2018-11-03T00:17:54.679Z,17.7
2018-11-03T00:22:52.463Z,17.7
2018-11-03T00:27:50.201Z,17.7
2018-11-03T00:32:47.921Z,17.6
2018-11-03T00:37:46.357Z,17.6
2018-11-03T00:42:44.133Z,17.5
2018-11-03T00:47:42.463Z,17.5
2018-11-03T00:52:40.414Z,17.5
2018-11-03T00:57:38.713Z,17.4
2018-11-03T01:02:36.893Z,17.4
2018-11-03T01:07:34.296Z,17.4
2018-11-03T01:12:32.456Z,17.3
2018-11-03T01:17:30.746Z,17.3
2018-11-03T01:22:28.461Z,17.3
2018-11-03T01:27:26.559Z,17.2
2018-11-03T01:32:24.368Z,17.2
2018-11-03T01:37:22.644Z,17.1
2018-11-03T01:42:20.855Z,17.1
2018-11-03T01:47:19.076Z,17.1
2018-11-03T01:52:16.755Z,17
2018-11-03T01:57:14.552Z,17
2018-11-03T02:02:12.287Z,17
2018-11-03T02:07:10.273Z,16.9
2018-11-03T02:12:08.728Z,16.9
2018-11-03T02:17:07.142Z,16.9
2018-11-03T02:22:05.205Z,16.8
2018-11-03T02:27:03.015Z,16.8
2018-11-03T02:32:01.272Z,16.7
2018-11-03T02:36:59.463Z,16.7
2018-11-03T02:41:57.596Z,16.7
2018-11-03T02:46:55.383Z,16.6
2018-11-03T02:51:53.294Z,16.6
2018-11-03T02:56:51.038Z,16.5
2018-11-03T03:01:49.342Z,16.5
2018-11-03T03:06:47.086Z,16.5
2018-11-03T03:11:45.353Z,16.5
2018-11-03T03:16:43.284Z,16.4
2018-11-03T03:21:41.449Z,16.4
2018-11-03T03:26:39.715Z,16.3
2018-11-03T03:31:37.652Z,16.3
2018-11-03T03:36:35.719Z,16.3
2018-11-03T03:41:33.873Z,16.2
2018-11-03T03:46:32.596Z,16.2
2018-11-03T03:51:30.736Z,16.2
2018-11-03T03:56:28.926Z,16.1
2018-11-03T04:01:26.558Z,16.1
2018-11-03T04:06:24.583Z,16.1
2018-11-03T04:11:22.765Z,16
2018-11-03T04:16:20.803Z,16
2018-11-03T04:21:18.682Z,15.8
2018-11-03T04:26:16.976Z,15.9
2018-11-03T04:31:15.111Z,15.9
2018-11-03T04:36:12.854Z,15.9
2018-11-03T04:41:10.344Z,15.8
2018-11-03T04:46:08.730Z,15.2
2018-11-03T04:51:07.142Z,15.8
2018-11-03T04:56:05.461Z,15.7
2018-11-03T05:01:03.332Z,15.7
2018-11-03T05:06:01.586Z,15.7
2018-11-03T05:10:59.824Z,15.6
2018-11-03T05:15:57.585Z,15.6
2018-11-03T05:20:56.011Z,15.6
2018-11-03T05:25:54.049Z,15.6
2018-11-03T05:30:51.479Z,15.5
2018-11-03T05:35:49.217Z,15.5
2018-11-03T05:40:47.551Z,15.4
2018-11-03T05:45:45.707Z,15.4
2018-11-03T05:50:43.916Z,15.4
2018-11-03T05:55:41.662Z,15.4
2018-11-03T06:00:39.426Z,15.3
2018-11-03T06:05:37.537Z,14.9
2018-11-03T06:10:35.974Z,15.2
2018-11-03T06:15:34.386Z,15.2
2018-11-03T06:20:32.798Z,15.2
2018-11-03T06:25:31.034Z,15.2
2018-11-03T06:30:29.370Z,15.1
2018-11-03T06:35:27.725Z,14.9
2018-11-03T06:40:25.992Z,15.1
2018-11-03T06:45:27.564Z,15.1
2018-11-03T06:50:25.100Z,15.1
2018-11-03T06:55:22.573Z,15
2018-11-03T07:00:20.894Z,15
2018-11-03T07:05:19.241Z,15
2018-11-03T07:10:17.158Z,15
2018-11-03T07:15:15.091Z,14.9
2018-11-03T07:20:13.187Z,14.9
2018-11-03T07:25:10.846Z,14.9
2018-11-03T07:30:08.977Z,14.9
2018-11-03T07:35:06.541Z,14.9
2018-11-03T07:40:04.962Z,14.9
2018-11-03T07:45:03.443Z,14.9
2018-11-03T07:50:02.074Z,14.9
2018-11-03T07:55:00.104Z,14.8
2018-11-03T07:59:57.446Z,14.8
2018-11-03T08:04:55.375Z,14.8
2018-11-03T08:09:52.847Z,14.8
2018-11-03T08:14:51.129Z,14.8
2018-11-03T08:19:49.365Z,14.8
2018-11-03T08:24:47.114Z,14.8
2018-11-03T08:29:44.763Z,14.8
2018-11-03T08:34:43.147Z,14.8
2018-11-03T08:39:40.985Z,14.8
2018-11-03T08:44:39.045Z,14.8
2018-11-03T08:49:36.884Z,14.8
2018-11-03T08:54:35.248Z,14.9
2018-11-03T08:59:32.722Z,14.9
2018-11-03T09:04:31.455Z,14.9
2018-11-03T09:09:29.219Z,14.9
2018-11-03T09:14:27.098Z,14.9
2018-11-03T09:19:25.808Z,15
2018-11-03T09:24:24.165Z,15
2018-11-03T09:29:22.330Z,15
2018-11-03T09:34:20.289Z,15.1
2018-11-03T09:39:18.559Z,15.1
2018-11-03T09:44:16.799Z,15.1
2018-11-03T09:49:14.857Z,15.1
2018-11-03T09:54:12.662Z,15.2
2018-11-03T09:59:11.051Z,15.2
2018-11-03T10:04:09.088Z,15.2
2018-11-03T10:09:07.022Z,15.3
2018-11-03T10:14:04.847Z,15.3
2018-11-03T10:19:03.455Z,15.4
2018-11-03T10:24:01.215Z,15.4
2018-11-03T10:28:59.506Z,15.4
2018-11-03T10:33:57.330Z,15.5
2018-11-03T10:38:55.224Z,15.6
2018-11-03T10:43:53.214Z,15.6
2018-11-03T10:48:51.152Z,15.6
2018-11-03T10:53:49.277Z,15.7
2018-11-03T10:58:47.841Z,15.7
2018-11-03T11:03:45.407Z,15.8
2018-11-03T11:08:43.899Z,15.8
2018-11-03T11:13:41.888Z,15.9
2018-11-03T11:18:40.424Z,15.9
2018-11-03T11:23:38.630Z,16
2018-11-03T11:28:36.674Z,16
2018-11-03T11:33:34.731Z,16.1
2018-11-03T11:38:32.990Z,16.1
2018-11-03T11:43:30.954Z,16.2
2018-11-03T11:48:29.370Z,16.3
2018-11-03T11:53:27.770Z,16.3
2018-11-03T11:58:25.588Z,16.4
2018-11-03T12:03:23.877Z,16.4
2018-11-03T12:08:21.814Z,16.5
2018-11-03T12:13:20.248Z,16.5
2018-11-03T12:18:18.155Z,16.6
2018-11-03T12:23:16.131Z,16.7
2018-11-03T12:28:14.411Z,16.7
2018-11-03T12:33:13.108Z,16.8
2018-11-03T12:38:10.952Z,16.8
2018-11-03T12:43:09.062Z,16.9
2018-11-03T12:48:06.778Z,16.9
2018-11-03T12:53:05.301Z,17
2018-11-03T12:58:03.804Z,17.1
2018-11-03T13:03:01.482Z,17.1
2018-11-03T13:08:00.086Z,17.2
2018-11-03T13:12:57.365Z,17.2
2018-11-03T13:17:55.834Z,17.3
2018-11-03T13:22:53.948Z,17.3
2018-11-03T13:27:52.588Z,17.4
2018-11-03T13:32:50.734Z,17.4
2018-11-03T13:37:48.657Z,17.5
2018-11-03T13:42:46.927Z,17.5
2018-11-03T13:47:45.324Z,17.5
2018-11-03T13:52:43.360Z,17.6
2018-11-03T13:57:41.381Z,17.6
2018-11-03T14:02:39.350Z,17.7
2018-11-03T14:07:37.089Z,17.7
2018-11-03T14:12:35.393Z,17.8
2018-11-03T14:17:33.715Z,17.8
2018-11-03T14:22:31.961Z,17.9
2018-11-03T14:27:30.175Z,17.9
2018-11-03T14:32:27.733Z,17.9
2018-11-03T14:37:25.985Z,18
2018-11-03T14:42:23.791Z,17.8
2018-11-03T14:47:21.901Z,18
2018-11-03T14:52:19.819Z,18
2018-11-03T14:57:18.270Z,18
2018-11-03T15:02:16.731Z,18.1
2018-11-03T15:07:14.411Z,18.1
2018-11-03T15:12:11.749Z,18.1
2018-11-03T15:17:09.391Z,18.1
2018-11-03T15:22:07.595Z,18.1
2018-11-03T15:27:05.388Z,18.2
2018-11-03T15:32:03.384Z,18.2
2018-11-03T15:37:01.801Z,18.2
2018-11-03T15:41:59.598Z,18.2
2018-11-03T15:46:57.397Z,18.2
2018-11-03T15:51:55.183Z,18.2
2018-11-03T15:56:52.973Z,18.2
2018-11-03T16:01:50.850Z,18.2
2018-11-03T16:06:48.857Z,18.2
2018-11-03T16:11:47.153Z,18.2
2018-11-03T16:16:45.406Z,18.2
2018-11-03T16:21:43.456Z,18.2
2018-11-03T16:26:41.605Z,18.2
2018-11-03T16:31:39.692Z,18.2
2018-11-03T16:36:37.682Z,18.2
2018-11-03T16:41:35.732Z,18.1
2018-11-03T16:46:33.190Z,18.1
2018-11-03T16:51:31.210Z,18.1
2018-11-03T16:56:29.185Z,18.1
2018-11-03T17:01:27.298Z,18.1
2018-11-03T17:06:25.656Z,18.1
2018-11-03T17:11:23.381Z,18.1
2018-11-03T17:16:21.344Z,18
2018-11-03T17:21:19.741Z,18
2018-11-03T17:26:17.203Z,18
2018-11-03T17:31:15.198Z,18
2018-11-03T17:36:13.263Z,18
2018-11-03T17:41:11.618Z,18
2018-11-03T17:46:08.763Z,18
2018-11-03T17:51:06.747Z,17.9
2018-11-03T17:56:04.936Z,17.9
2018-11-03T18:01:02.906Z,17.9
2018-11-03T18:06:01.421Z,17.9
2018-11-03T18:10:59.568Z,17.8
2018-11-03T18:15:57.909Z,17.8
2018-11-03T18:20:55.784Z,17.8
2018-11-03T18:25:53.751Z,17.7
2018-11-03T18:30:51.910Z,17.7
2018-11-03T18:35:50.112Z,17.7
2018-11-03T18:40:48.145Z,17.7
2018-11-03T18:45:46.207Z,17.7
2018-11-03T18:50:44.576Z,17.6
2018-11-03T18:55:42.485Z,17.6
2018-11-03T19:00:40.432Z,17.6
2018-11-03T19:05:38.474Z,17.5
2018-11-03T19:10:36.792Z,17.5
2018-11-03T19:15:35.179Z,17.5
2018-11-03T19:20:33.235Z,17.4
2018-11-03T19:25:31.290Z,17.4
2018-11-03T19:30:29.425Z,17.4
2018-11-03T19:35:27.338Z,17.4
2018-11-03T19:40:25.501Z,17.3
2018-11-03T19:45:23.859Z,17.3
2018-11-03T19:50:22.381Z,17.3
2018-11-03T19:55:20.377Z,17.2
2018-11-03T20:00:18.531Z,17.2
2018-11-03T20:05:16.446Z,17.2
2018-11-03T20:10:14.918Z,17.1
2018-11-03T20:15:12.944Z,17.1
2018-11-03T20:20:11.298Z,16.7
2018-11-03T20:25:09.179Z,17
2018-11-03T20:30:07.199Z,17
2018-11-03T20:35:05.636Z,17
2018-11-03T20:40:03.464Z,17
2018-11-03T20:45:01.782Z,16.9
2018-11-03T20:49:59.820Z,16.9
2018-11-03T20:54:57.747Z,16.9
2018-11-03T20:59:55.804Z,16.8
2018-11-03T21:04:54.130Z,16.8
2018-11-03T21:09:51.971Z,16.8
2018-11-03T21:14:49.974Z,16.7
2018-11-03T21:19:47.824Z,16.7
2018-11-03T21:24:45.905Z,16.6
2018-11-03T21:29:43.937Z,16.6
2018-11-03T21:34:42.025Z,16.2
2018-11-03T21:39:39.870Z,16.5
2018-11-03T21:44:38.119Z,16.5
2018-11-03T21:49:35.981Z,16.5
2018-11-03T21:54:33.912Z,16.4
2018-11-03T21:59:32.336Z,16.4
2018-11-03T22:04:30.335Z,16.3
2018-11-03T22:09:28.447Z,16.3
2018-11-03T22:14:26.721Z,16.3
2018-11-03T22:19:24.567Z,16.2
2018-11-03T22:24:23.054Z,16.2
2018-11-03T22:29:20.532Z,16.2
2018-11-03T22:34:18.191Z,16.1
2018-11-03T22:39:16.488Z,16.1
2018-11-03T22:44:14.716Z,16
2018-11-03T22:49:12.378Z,16
2018-11-03T22:54:10.258Z,16
2018-11-03T22:59:08.662Z,15.9
2018-11-03T23:04:06.605Z,15.9
2018-11-03T23:09:04.289Z,15.9
2018-11-03T23:14:02.277Z,15.9
2018-11-03T23:19:00.506Z,15.8
2018-11-03T23:23:58.777Z,15.8
2018-11-03T23:28:56.461Z,15.7
2018-11-03T23:33:54.906Z,15.7
2018-11-03T23:38:53.204Z,15.6
2018-11-03T23:43:50.995Z,15.6
2018-11-03T23:48:49.006Z,15.6
2018-11-03T23:53:47.408Z,15.5
2018-11-03T23:58:45.788Z,15.5
